Udall, Kansas
Current Conditions -  °F | °C
As of 6:54 PM on Friday 28 Nov 2014 (Local Time) from KWLD Reporting Station
Clear Clear  
Wind Chill: 55°   Ceiling: Unl
Heat Index: 55°   Visibility: 10mi
Dew Point: 39°   Wind: 9mph
Humidity: 55%   Direction: 190°S
Pressure: 29.85"   Gusts: NA
Location:  37.39°N, 97.11°W
Report Text: KWLD 290054Z AUTO 19008KT 10SM CLR 13/04 A2985 RMK AO2 SLP110 T01280039
Loading
Personal Weather Stations






























Interactive Weather Map New forecast layout! Learn more

10-Day Weather Forecast

Advertisements
Track Severe Weather on mobile